Skip Navigation Links
NOAA logo - Click to go to the NOAA homepage
NOAA's National Weather Service
Alaska Aviation Weather Unit
  NWS logo - Click to go to the NWS homepage
Left Navbar Graphic     22 AKDT = 06 GMT

   
NOAA is celebrating 200 years of science, service, and stewardship. Visit the NOAA 200th celebration Web site to learn more.
USA.gov is the U.S. Government's official Web portal to all Federal, state and local government Web resources and services.
Facebook
NWS on Facebook

Important Change Regarding the AAWU Web Presence

 

Over the last several months, the AAWU has been working to navigate its webpages to a nationally supported server. Security, as well as other needs, have necessitated the change.  We have been given an extension for the site changeover while we diligently work at addressing feedback received. As of July 14, 2017, aawu.arh.noaa.gov will be discontinued. The new AAWU web address is weather.gov/aawu. It is now live and will run in-parallel with the old site until it is discontinued on July 14, 2017. Please continue to send any feedback or questions regarding the new webpages to nws.ar.aawu.webauthors@noaa.gov.  Thank you for your patience during this time of transition.
AAWU Home :: Display TAF Add Bookmark
TAF PABR 260534Z 2606/2706 03008KT 1 1/2SM BR BKN007 OVC015
     FM260900 03008KT 1/2SM FG OVC005
     FM261500 06006KT 1 1/2SM BR BKN007 OVC015
     FM261800 05004KT P6SM VCFG SCT007 OVC015=

PABR 260053Z 35009KT 10SM BKN008 OVC013 03/01 A3001= PABR 260153Z 01008KT 10SM OVC007 03/01 A3001= PABR 260253Z VRB06KT 10SM OVC006 02/01 A3002= PABR 260353Z 01006KT 10SM OVC007 02/00 A3003= PABR 260453Z 35008KT 10SM OVC006 02/00 A3004= PABR 260553Z 03007KT 10SM OVC006 01/M01 A3004=
 Alaska TAF Map

NOAA's National Weather Service
Alaska Aviation Weather Unit
6930 Sand Lake Road
Anchorage, AK 99502-1845
Disclaimer
Credits
Glossary
Privacy Policy
About Us
Career Opportunities
Contact AAWU Internet Services Site last modified: April, 17th 2012